Time;durP1;ratioP1;P1;durP2;ratioP2;P2;SDS_P1;SDS_P2;PMS_P1;PMS_P2;Temp;Humidity;BMP_temperature;BMP_pressure;BME280_temperature;BME280_humidity;BME280_pressure;Samples;Min_cycle;Max_cycle;Signal;HPM_P1;HPM_P2
2021/07/01 00:01:12;;;;;;;7.85;5.47;;;;;;;15.36;79.74;101231.03;4824543;29;20078;-81
2021/07/01 00:03:39;;;;;;;8.25;5.53;;;;;;;15.33;79.77;101228.78;4824544;29;20059;-81
2021/07/01 00:06:04;;;;;;;7.63;5.60;;;;;;;15.30;79.44;101233.81;4824259;29;20038;-80
2021/07/01 00:08:30;;;;;;;8.23;5.38;;;;;;;15.16;79.34;101224.94;4824460;29;20035;-80
2021/07/01 00:10:55;;;;;;;6.13;5.03;;;;;;;15.24;79.36;101240.94;4824182;29;20041;-80
2021/07/01 00:13:21;;;;;;;9.38;5.95;;;;;;;15.17;79.66;101240.16;4824157;29;20130;-80
2021/07/01 00:15:47;;;;;;;8.13;5.80;;;;;;;15.17;79.56;101240.16;4823813;29;20022;-80
2021/07/01 00:18:12;;;;;;;7.80;5.38;;;;;;;15.14;79.67;101246.84;4823587;29;20059;-81
2021/07/01 00:20:38;;;;;;;7.25;5.30;;;;;;;14.94;79.57;101217.16;4789873;30;20119;-81
2021/07/01 00:23:03;;;;;;;10.15;5.20;;;;;;;14.97;79.64;101233.00;4831324;29;20031;-81
2021/07/01 00:25:29;;;;;;;9.73;5.55;;;;;;;14.97;79.67;101241.13;4824369;29;20067;-80
2021/07/01 00:27:55;;;;;;;7.75;5.35;;;;;;;14.93;79.86;101233.63;4822382;29;20090;-80
2021/07/01 00:30:22;;;;;;;8.57;5.78;;;;;;;14.90;79.99;101231.34;4822769;29;20026;-81
2021/07/01 00:32:49;;;;;;;7.70;5.47;;;;;;;14.87;80.37;101243.47;4821160;29;20031;-80
2021/07/01 00:35:15;;;;;;;7.75;5.35;;;;;;;14.85;80.19;101237.44;4820028;29;20035;-80
2021/07/01 00:37:41;;;;;;;8.10;5.63;;;;;;;14.83;79.98;101234.09;4822954;29;20110;-80
2021/07/01 00:40:08;;;;;;;7.75;5.20;;;;;;;14.79;80.09;101238.28;4820908;29;20042;-81
2021/07/01 00:42:35;;;;;;;6.68;5.32;;;;;;;14.78;80.46;101237.47;4822935;29;20099;-81
2021/07/01 00:45:00;;;;;;;8.43;5.75;;;;;;;14.65;80.42;101215.03;4823853;29;20068;-80
2021/07/01 00:47:26;;;;;;;11.82;5.95;;;;;;;14.69;80.73;101227.09;4806082;29;20034;-81
2021/07/01 00:49:53;;;;;;;7.55;5.72;;;;;;;14.68;80.73;101233.56;4821530;29;20042;-80
2021/07/01 00:52:19;;;;;;;8.68;5.53;;;;;;;14.67;80.35;101234.59;4823324;29;20034;-81
2021/07/01 00:54:45;;;;;;;6.60;5.47;;;;;;;14.65;80.21;101228.59;4821988;29;20023;-80
2021/07/01 00:57:11;;;;;;;7.65;5.82;;;;;;;14.59;80.34;101224.84;4828825;29;20037;-81
2021/07/01 00:59:37;;;;;;;8.25;5.68;;;;;;;14.57;80.22;101226.97;4824127;29;20098;-80
2021/07/01 01:02:03;;;;;;;12.00;6.03;;;;;;;14.38;80.29;101201.59;4818911;29;20026;-81
2021/07/01 01:04:29;;;;;;;8.93;5.80;;;;;;;14.43;80.15;101212.59;4820328;29;20433;-81
2021/07/01 01:06:54;;;;;;;9.40;5.97;;;;;;;14.47;80.18;101221.97;4821170;29;20031;-80
2021/07/01 01:09:20;;;;;;;8.77;6.15;;;;;;;14.45;80.28;101225.94;4821430;29;20050;-80
2021/07/01 01:11:46;;;;;;;9.55;5.93;;;;;;;14.35;79.82;101210.13;4824236;29;20043;-80
2021/07/01 01:14:13;;;;;;;10.90;6.25;;;;;;;14.33;80.19;101218.44;4825025;29;20087;-80
2021/07/01 01:16:39;;;;;;;8.77;6.05;;;;;;;14.23;79.89;101203.72;4810544;29;20038;-80
2021/07/01 01:19:04;;;;;;;8.77;5.75;;;;;;;14.32;79.50;101226.81;4809807;29;20055;-80
2021/07/01 01:21:30;;;;;;;7.97;6.05;;;;;;;14.15;79.12;101201.25;4823485;29;20049;-81
2021/07/01 01:23:58;;;;;;;9.57;6.55;;;;;;;14.32;78.91;101207.84;4821634;29;20074;-83
2021/07/01 01:26:24;;;;;;;9.07;6.05;;;;;;;14.33;78.70;101213.03;4820620;29;20069;-82
2021/07/01 01:28:50;;;;;;;8.00;5.50;;;;;;;14.33;78.68;101221.16;4818714;29;20035;-82
2021/07/01 01:31:16;;;;;;;8.68;6.18;;;;;;;14.31;78.59;101215.16;4821281;29;20506;-82
2021/07/01 01:33:42;;;;;;;8.45;6.43;;;;;;;14.25;78.48;101217.88;4817904;29;20031;-83
2021/07/01 01:36:07;;;;;;;10.55;6.00;;;;;;;14.22;78.59;101211.00;4806174;29;20373;-83
2021/07/01 01:38:33;;;;;;;8.38;5.95;;;;;;;14.11;78.72;101208.97;4818827;29;20078;-82
2021/07/01 01:40:58;;;;;;;9.20;6.18;;;;;;;14.22;78.39;101226.41;4824376;29;20041;-83
2021/07/01 01:43:23;;;;;;;12.75;6.68;;;;;;;14.20;78.67;101217.66;4809792;29;20085;-82
2021/07/01 01:45:50;;;;;;;7.32;5.72;;;;;;;14.15;78.21;101203.97;4813826;29;20391;-82
2021/07/01 01:48:16;;;;;;;10.85;5.68;;;;;;;14.09;78.42;101211.88;4827555;29;20068;-83
2021/07/01 01:50:43;;;;;;;7.40;5.63;;;;;;;14.08;78.60;101220.22;4806283;29;20031;-84
2021/07/01 01:53:10;;;;;;;7.95;5.97;;;;;;;14.12;77.96;101221.44;4823586;29;20362;-82
2021/07/01 01:55:37;;;;;;;8.93;5.80;;;;;;;13.89;78.23;101181.34;4816453;29;20042;-83
2021/07/01 01:58:03;;;;;;;11.65;5.47;;;;;;;14.07;78.13;101210.41;4815190;29;20160;-82
2021/07/01 02:00:30;;;;;;;9.15;5.30;;;;;;;14.02;78.09;101207.53;4814549;29;20099;-82
2021/07/01 02:02:57;;;;;;;9.77;5.88;;;;;;;13.98;77.99;101203.59;4811969;29;20031;-82
2021/07/01 02:05:23;;;;;;;7.50;5.18;;;;;;;13.88;77.85;101189.69;4814268;29;20038;-82
2021/07/01 02:07:48;;;;;;;8.13;5.07;;;;;;;13.86;77.66;101187.16;4814889;29;20031;-82
2021/07/01 02:10:23;;;;;;;10.18;5.50;;;;;;;13.82;78.00;101183.22;4817537;29;20031;-80
2021/07/01 02:12:49;;;;;;;9.73;5.20;;;;;;;13.96;77.79;101201.09;4820030;29;20095;-79
2021/07/01 02:15:17;;;;;;;8.90;5.05;;;;;;;13.88;77.62;101193.22;4805829;29;20088;-80
2021/07/01 02:17:43;;;;;;;10.05;5.10;;;;;;;13.88;77.50;101205.91;4819933;29;20047;-80
2021/07/01 02:20:11;;;;;;;7.82;5.13;;;;;;;13.89;77.52;101210.25;4821880;29;20068;-80
2021/07/01 02:22:37;;;;;;;8.10;5.18;;;;;;;13.88;77.36;101200.50;4830102;29;20034;-80
2021/07/01 02:25:04;;;;;;;8.38;4.68;;;;;;;13.89;77.30;101211.09;4819488;29;20464;-79
2021/07/01 02:27:30;;;;;;;7.35;5.07;;;;;;;13.89;77.36;101194.88;4802073;29;20137;-80
2021/07/01 02:29:55;;;;;;;7.85;4.88;;;;;;;13.88;77.18;101195.91;4787205;30;20420;-80
2021/07/01 02:32:21;;;;;;;7.47;4.60;;;;;;;13.75;77.13;101187.81;4800908;29;20043;-79
2021/07/01 02:34:46;;;;;;;7.25;4.78;;;;;;;13.90;77.11;101212.75;4833406;29;20050;-79
2021/07/01 02:37:12;;;;;;;8.13;4.70;;;;;;;13.74;77.18;101194.25;4818378;29;20118;-79
2021/07/01 02:39:39;;;;;;;8.50;4.45;;;;;;;13.90;77.06;101206.50;4820463;29;20453;-79
2021/07/01 02:42:06;;;;;;;8.65;4.55;;;;;;;13.99;76.41;101205.25;4818218;29;20038;-80
2021/07/01 02:44:31;;;;;;;7.18;4.65;;;;;;;14.16;75.91;101195.63;4821304;29;20023;-80
2021/07/01 02:46:58;;;;;;;8.20;4.70;;;;;;;14.39;74.98;101200.53;4818103;29;20133;-79
2021/07/01 02:49:23;;;;;;;8.30;4.45;;;;;;;14.60;74.32;101201.31;4817973;29;20026;-80
2021/07/01 02:51:48;;;;;;;8.07;5.13;;;;;;;14.76;74.05;101207.03;4806089;29;20062;-80
2021/07/01 02:54:15;;;;;;;7.20;4.65;;;;;;;14.92;73.30;101207.59;4805358;29;20049;-80
2021/07/01 02:56:41;;;;;;;8.40;4.88;;;;;;;14.78;72.78;101179.75;4820573;29;20031;-80
2021/07/01 02:59:08;;;;;;;7.75;4.40;;;;;;;15.12;72.28;101202.84;4819828;29;20031;-80
2021/07/01 03:01:34;;;;;;;9.50;4.32;;;;;;;15.23;71.48;101199.47;4822676;29;20038;-80
2021/07/01 03:03:59;;;;;;;6.90;4.38;;;;;;;15.27;71.29;101197.13;4820846;29;20105;-80
2021/07/01 03:06:24;;;;;;;6.47;4.25;;;;;;;15.40;71.04;101197.03;4821764;29;20060;-79
2021/07/01 03:08:50;;;;;;;8.23;4.30;;;;;;;15.59;69.98;101202.47;4819496;29;20023;-80
2021/07/01 03:11:16;;;;;;;7.18;4.30;;;;;;;15.76;69.00;101200.06;4821616;29;20072;-79
2021/07/01 03:13:42;;;;;;;7.03;4.00;;;;;;;15.77;69.37;101196.31;4804677;29;20030;-80
2021/07/01 03:16:07;;;;;;;4.75;3.88;;;;;;;15.97;68.28;101196.94;4792089;29;20115;-80
2021/07/01 03:18:33;;;;;;;5.47;3.70;;;;;;;15.82;68.01;101180.19;4820903;29;20054;-78
2021/07/01 03:20:58;;;;;;;8.32;4.13;;;;;;;15.93;68.04;101193.84;4821198;29;20099;-80
2021/07/01 03:23:23;;;;;;;5.13;3.72;;;;;;;15.87;67.67;101197.44;4821347;29;20050;-81
2021/07/01 03:25:49;;;;;;;6.93;3.95;;;;;;;16.16;67.29;101205.94;4806137;29;20034;-81
2021/07/01 03:28:14;;;;;;;5.75;3.58;;;;;;;16.13;67.14;101200.94;4823062;29;20053;-80
2021/07/01 03:30:39;;;;;;;8.73;3.95;;;;;;;16.52;66.17;101210.47;4821355;29;20026;-80
2021/07/01 03:33:05;;;;;;;6.20;3.33;;;;;;;16.59;65.48;101204.97;4823105;29;20054;-80
2021/07/01 03:35:30;;;;;;;4.85;3.42;;;;;;;16.42;65.37;101153.16;4805661;29;20043;-81
2021/07/01 03:37:56;;;;;;;7.68;4.13;;;;;;;16.71;64.80;101186.00;4820447;29;20373;-80
2021/07/01 03:40:21;;;;;;;8.55;3.85;;;;;;;16.95;64.51;101211.41;4820161;29;20043;-80
2021/07/01 03:42:46;;;;;;;5.85;3.35;;;;;;;16.89;64.67;101199.56;4837634;29;20121;-81
2021/07/01 03:45:12;;;;;;;8.20;4.00;;;;;;;17.02;64.79;101201.25;4792012;29;20062;-80
2021/07/01 03:47:38;;;;;;;5.45;3.55;;;;;;;17.02;64.70;101204.81;4791537;29;20102;-80
2021/07/01 03:50:05;;;;;;;6.28;3.47;;;;;;;16.94;64.56;101207.03;4821849;29;20060;-80
2021/07/01 03:52:31;;;;;;;4.78;3.65;;;;;;;17.26;64.13;101200.25;4815575;29;20099;-81
2021/07/01 03:54:56;;;;;;;6.55;3.45;;;;;;;17.29;63.79;101186.19;4824537;29;20050;-80
2021/07/01 03:57:21;;;;;;;6.15;3.40;;;;;;;16.94;63.99;101175.22;4820528;29;20038;-80
2021/07/01 03:59:48;;;;;;;10.05;3.78;;;;;;;17.03;63.73;101178.47;4801205;29;20067;-80
2021/07/01 04:02:14;;;;;;;5.28;3.03;;;;;;;16.53;64.98;101171.41;4806834;29;20027;-80
2021/07/01 04:04:41;;;;;;;6.28;3.63;;;;;;;16.60;64.67;101188.44;4814221;29;20057;-79
2021/07/01 04:07:08;;;;;;;6.35;3.30;;;;;;;17.06;63.28;101189.69;4808219;29;20035;-81
2021/07/01 04:09:33;;;;;;;5.57;3.08;;;;;;;17.09;62.37;101189.22;4823219;29;20054;-81
2021/07/01 04:12:02;;;;;;;4.72;3.00;;;;;;;17.44;61.76;101179.47;4805816;29;20026;-81
2021/07/01 04:14:27;;;;;;;5.50;2.90;;;;;;;17.43;61.67;101188.69;4824346;29;20064;-79
2021/07/01 04:16:53;;;;;;;5.10;3.50;;;;;;;17.36;61.46;101169.75;4792571;29;20039;-80
2021/07/01 04:19:18;;;;;;;4.55;3.05;;;;;;;17.94;60.65;101193.44;4808217;29;20034;-81
2021/07/01 04:21:44;;;;;;;4.85;3.35;;;;;;;17.96;60.52;101185.03;4822695;29;20126;-82
2021/07/01 04:24:10;;;;;;;4.45;3.05;;;;;;;17.94;60.61;101193.44;4826494;29;20137;-81
2021/07/01 04:26:36;;;;;;;4.93;3.17;;;;;;;18.26;60.44;101182.97;4827121;29;20038;-83
2021/07/01 04:29:02;;;;;;;7.60;2.90;;;;;;;18.26;60.41;101190.31;4818163;29;20014;-81
2021/07/01 04:31:27;;;;;;;4.10;2.95;;;;;;;18.50;60.33;101188.34;4813606;29;20106;-81
2021/07/01 04:33:53;;;;;;;4.45;2.80;;;;;;;18.54;59.67;101187.63;4800606;29;20042;-79
2021/07/01 04:36:18;;;;;;;4.28;2.78;;;;;;;18.40;59.47;101160.88;4811324;29;20129;-79
2021/07/01 04:38:44;;;;;;;2.88;2.53;;;;;;;18.23;59.47;101183.44;4809644;29;20050;-79
2021/07/01 04:41:09;;;;;;;4.05;2.72;;;;;;;18.23;59.91;101194.34;4807093;29;20365;-79
2021/07/01 04:43:35;;;;;;;5.63;2.97;;;;;;;18.48;59.58;101185.03;4797947;29;20046;-78
2021/07/01 04:46:00;;;;;;;5.55;2.50;;;;;;;17.93;59.90;101194.50;4810260;29;20050;-79
2021/07/01 04:48:26;;;;;;;4.50;2.92;;;;;;;18.00;60.27;101183.50;4811438;29;20041;-79
2021/07/01 04:50:51;;;;;;;3.55;2.47;;;;;;;17.72;60.35;101168.69;4780570;29;20145;-79
2021/07/01 04:53:17;;;;;;;6.25;2.33;;;;;;;17.82;60.20;101188.00;4799411;29;20126;-79
2021/07/01 04:55:42;;;;;;;3.03;2.35;;;;;;;17.64;60.38;101188.09;4783305;29;20377;-79
2021/07/01 04:58:07;;;;;;;4.13;2.38;;;;;;;18.04;59.79;101187.38;4814247;29;20031;-81
2021/07/01 05:00:35;;;;;;;3.85;2.30;;;;;;;17.89;59.92;101197.97;4821090;29;20043;-80
2021/07/01 05:03:02;;;;;;;3.33;2.33;;;;;;;17.69;60.16;101171.06;4824539;29;20037;-81
2021/07/01 05:05:28;;;;;;;5.60;2.28;;;;;;;17.63;60.47;101189.16;4828186;29;20010;-83
2021/07/01 05:07:54;;;;;;;4.55;2.20;;;;;;;18.04;59.61;101192.81;4808818;29;20106;-82
2021/07/01 05:10:19;;;;;;;3.33;2.33;;;;;;;17.73;59.64;101169.53;4828999;29;20010;-82
2021/07/01 05:12:45;;;;;;;3.28;2.00;;;;;;;17.50;60.21;101200.28;4830266;29;20039;-80
2021/07/01 05:15:11;;;;;;;2.85;2.05;;;;;;;17.22;60.70;101171.88;4828620;29;20050;-82
2021/07/01 05:17:37;;;;;;;3.33;2.58;;;;;;;17.33;60.91;101173.78;4826292;29;20079;-83
2021/07/01 05:20:05;;;;;;;4.63;2.25;;;;;;;17.54;60.36;101169.63;4828208;29;20039;-82
2021/07/01 05:22:31;;;;;;;4.50;2.10;;;;;;;17.36;60.71;101142.56;4825330;29;20039;-83
2021/07/01 05:24:56;;;;;;;2.38;2.10;;;;;;;17.36;61.04;101162.44;4811582;29;20123;-83
2021/07/01 05:27:23;;;;;;;3.83;1.83;;;;;;;17.44;60.99;101157.69;4829210;29;20118;-83
2021/07/01 05:29:48;;;;;;;4.75;2.20;;;;;;;17.36;61.09;101161.59;4828229;29;20035;-83
2021/07/01 05:32:14;;;;;;;6.10;2.22;;;;;;;16.44;63.07;101141.00;4844890;29;20111;-83
2021/07/01 05:34:39;;;;;;;3.22;2.00;;;;;;;16.10;64.74;101168.81;4811999;29;20025;-85
2021/07/01 05:37:05;;;;;;;3.78;1.80;;;;;;;15.91;64.96;101160.66;4828726;29;20031;-84
2021/07/01 05:39:30;;;;;;;2.58;2.08;;;;;;;15.82;65.24;101167.44;4828022;29;20039;-82
2021/07/01 05:41:56;;;;;;;2.42;1.77;;;;;;;15.63;65.84;101144.00;4830288;29;20035;-83
2021/07/01 05:44:21;;;;;;;4.75;2.10;;;;;;;15.69;66.11;101162.16;4811092;29;20022;-84
2021/07/01 05:46:48;;;;;;;3.83;1.95;;;;;;;15.69;65.87;101140.44;4797710;29;20103;-84
2021/07/01 05:49:13;;;;;;;4.35;2.10;;;;;;;15.85;65.76;101149.88;4830369;29;20031;-83
2021/07/01 05:51:40;;;;;;;4.22;1.80;;;;;;;15.96;65.52;101155.41;4833297;29;20074;-84
2021/07/01 05:57:02;;;;;;;5.03;1.90;;;;;;;15.97;65.72;101151.63;4841900;29;20031;-84
2021/07/01 05:59:27;;;;;;;1.95;1.67;;;;;;;16.25;65.32;101142.09;4834880;29;20050;-85
2021/07/01 06:01:54;;;;;;;2.28;1.70;;;;;;;16.66;64.72;101137.78;4821105;29;20038;-84
2021/07/01 06:04:20;;;;;;;5.30;1.70;;;;;;;17.01;63.24;101126.19;4804502;29;20015;-85
2021/07/01 06:06:50;;;;;;;1.67;1.40;;;;;;;16.90;63.54;101130.56;4835454;29;20045;-84
2021/07/01 06:09:16;;;;;;;2.20;1.45;;;;;;;17.12;63.12;101141.72;4837422;29;20011;-84
2021/07/01 06:11:42;;;;;;;2.45;1.63;;;;;;;17.42;62.80;101128.03;4800766;29;20017;-84
2021/07/01 06:14:08;;;;;;;2.53;1.60;;;;;;;17.45;62.13;101123.97;4824866;29;20031;-84
2021/07/01 06:16:35;;;;;;;2.83;1.60;;;;;;;17.31;62.31;101121.50;4839746;29;20084;-84
2021/07/01 06:19:03;;;;;;;2.30;1.80;;;;;;;17.69;61.82;101136.50;4828674;29;20054;-82
2021/07/01 06:21:29;;;;;;;2.58;1.52;;;;;;;17.79;61.23;101144.94;4828313;29;20130;-83
2021/07/01 06:23:57;;;;;;;4.47;1.60;;;;;;;17.96;61.10;101125.16;4815040;29;20042;-85
2021/07/01 06:26:28;;;;;;;2.00;1.40;;;;;;;17.82;60.35;101135.47;4834217;29;20014;-85
2021/07/01 06:28:55;;;;;;;3.92;1.60;;;;;;;17.76;61.82;101120.91;4823090;29;20041;-84
2021/07/01 06:31:20;;;;;;;1.88;1.50;;;;;;;17.71;60.77;101128.09;4829360;29;20129;-84
2021/07/01 06:33:47;;;;;;;9.93;1.75;;;;;;;17.87;59.95;101116.50;4827115;29;20043;-84
2021/07/01 06:36:13;;;;;;;3.95;1.45;;;;;;;17.96;59.69;101120.53;4813865;29;20078;-84
2021/07/01 06:38:45;;;;;;;2.40;1.70;;;;;;;17.85;59.30;101094.16;4828057;29;20026;-84
2021/07/01 06:41:12;;;;;;;1.77;1.40;;;;;;;18.02;59.15;101084.16;4829927;29;20058;-85
2021/07/01 06:43:39;;;;;;;5.05;1.80;;;;;;;18.32;58.88;101110.34;4820293;29;20038;-85
2021/07/01 06:46:06;;;;;;;2.58;1.85;;;;;;;18.39;59.54;101121.09;4812268;29;20015;-84
2021/07/01 06:48:33;;;;;;;2.97;1.65;;;;;;;18.31;59.78;101112.25;4811438;29;20054;-84
2021/07/01 06:50:59;;;;;;;2.70;1.48;;;;;;;18.59;59.71;101118.75;4782507;30;20046;-84
2021/07/01 06:53:27;;;;;;;1.60;1.48;;;;;;;18.29;59.63;101116.28;4840070;29;20011;-86
2021/07/01 06:55:52;;;;;;;1.40;1.30;;;;;;;18.20;59.40;101095.94;4829920;29;20019;-85
2021/07/01 06:58:19;;;;;;;3.05;1.50;;;;;;;18.40;59.27;101115.38;4798521;29;20033;-84
2021/07/01 07:00:45;;;;;;;2.47;1.50;;;;;;;18.35;59.45;101109.03;4829228;29;20070;-84
2021/07/01 07:03:16;;;;;;;2.70;1.48;;;;;;;18.59;58.08;101117.94;4826803;29;20102;-84
2021/07/01 07:05:42;;;;;;;2.25;1.50;;;;;;;18.46;59.11;101103.53;4828221;29;20035;-83
2021/07/01 07:08:09;;;;;;;4.97;1.70;;;;;;;18.31;59.04;101114.16;4828174;29;20031;-83
2021/07/01 07:10:39;;;;;;;2.10;1.48;;;;;;;18.44;59.16;101124.75;4828150;29;20035;-84
2021/07/01 07:15:42;;;;;;;2.15;1.55;;;;;;;18.30;59.05;101075.16;5274787;24;20043;-84
2021/07/01 07:18:11;;;;;;;4.88;1.50;;;;;;;18.54;59.11;101119.50;4826588;29;20019;-85
2021/07/01 07:20:40;;;;;;;2.72;1.40;;;;;;;18.27;58.87;101059.31;4826648;29;20060;-84
2021/07/01 07:23:09;;;;;;;3.53;1.63;;;;;;;17.95;59.63;101083.47;4820264;29;20015;-83
2021/07/01 07:25:41;;;;;;;3.30;1.27;;;;;;;18.05;59.44;101120.97;4827010;29;20034;-82
2021/07/01 07:28:09;;;;;;;4.53;1.67;;;;;;;18.11;59.73;101103.66;4819779;29;20011;-83
2021/07/01 07:33:10;;;;;;;1.55;1.15;;;;;;;17.35;59.06;100910.53;4834434;29;20252;-85
2021/07/01 07:38:11;;;;;;;9.85;1.85;;;;;;;17.20;58.71;100906.66;5389519;24;20038;-85
2021/07/01 07:40:39;;;;;;;2.33;1.40;;;;;;;17.38;58.20;100907.34;4843812;29;20122;-84
2021/07/01 07:43:06;;;;;;;2.88;1.30;;;;;;;18.82;57.99;101103.38;4844181;29;20038;-85
2021/07/01 07:45:32;;;;;;;5.68;1.20;;;;;;;18.28;58.13;101006.50;4844195;29;20043;-85
2021/07/01 07:47:58;;;;;;;3.05;1.30;;;;;;;18.06;58.39;101008.25;4845174;29;20037;-85
2021/07/01 07:50:23;;;;;;;2.47;1.20;;;;;;;17.98;58.34;100981.41;4845125;29;20026;-84
2021/07/01 08:08:47;;;;;;;4.85;1.35;;;;;;;18.50;56.83;100997.59;4809247;29;20039;-85
2021/07/01 08:11:13;;;;;;;1.92;1.30;;;;;;;19.44;56.43;101079.53;4815896;29;20051;-84
2021/07/01 08:13:40;;;;;;;4.78;1.20;;;;;;;18.69;56.87;101000.91;4810570;29;20027;-85
2021/07/01 08:16:06;;;;;;;1.85;1.20;;;;;;;18.66;56.51;101037.66;4808332;29;20019;-85
2021/07/01 08:18:41;;;;;;;2.75;1.40;;;;;;;18.88;56.52;101028.78;4809022;29;20024;-84
2021/07/01 08:21:13;;;;;;;;;;;;;;;18.95;57.16;101098.41;4810891;29;20083;-85
2021/07/01 08:23:41;;;;;;;5.15;1.65;;;;;;;18.20;57.39;100971.47;4808841;29;19918;-85
2021/07/01 08:26:08;;;;;;;4.43;1.13;;;;;;;19.20;57.42;101106.19;4809176;29;20019;-84
2021/07/01 08:28:34;;;;;;;3.85;1.50;;;;;;;18.36;57.28;100949.94;4811999;29;20084;-85
2021/07/01 08:31:07;;;;;;;2.20;1.52;;;;;;;18.30;56.48;100905.44;4809988;29;20042;-86
2021/07/01 08:33:39;;;;;;;1.55;1.40;;;;;;;18.91;56.30;100980.03;4812017;29;20036;-87
2021/07/01 08:59:24;;;;;;;3.63;1.50;;;;;;;19.05;55.74;101032.31;5325220;24;20047;-84
2021/07/01 09:02:02;;;;;;;3.20;1.45;;;;;;;18.42;55.56;100919.00;4823948;29;20040;-84
2021/07/01 09:04:42;;;;;;;2.30;1.50;;;;;;;18.35;55.43;100900.09;4819246;29;20023;-82
2021/07/01 09:07:15;;;;;;;5.40;1.48;;;;;;;19.64;55.13;101100.03;4827667;29;20048;-84
2021/07/01 09:09:43;;;;;;;6.10;1.90;;;;;;;18.63;56.88;100980.91;4826599;29;20031;-83
2021/07/01 09:12:09;;;;;;;2.72;1.83;;;;;;;18.38;57.36;100964.16;4828156;29;20275;-84
2021/07/01 09:14:40;;;;;;;6.72;2.55;;;;;;;18.40;56.87;100932.84;4825214;29;20042;-83
2021/07/01 09:17:13;;;;;;;3.45;2.00;;;;;;;18.41;57.19;100918.19;4827734;29;20098;-82
2021/07/01 09:19:39;;;;;;;3.63;1.70;;;;;;;19.09;56.91;101038.06;4816826;29;20033;-82
2021/07/01 09:22:11;;;;;;;2.78;1.63;;;;;;;18.45;56.89;100989.34;4814837;29;20030;-82
2021/07/01 09:24:37;;;;;;;5.38;1.90;;;;;;;18.04;57.53;100936.88;4813267;29;20027;-81
2021/07/01 09:27:13;;;;;;;4.90;2.05;;;;;;;18.00;57.65;100960.22;4809447;29;20011;-83
2021/07/01 09:29:44;;;;;;;2.53;1.52;;;;;;;19.10;58.28;101113.38;4820095;29;20110;-82
2021/07/01 09:32:11;;;;;;;6.43;1.88;;;;;;;18.68;58.59;101092.75;4825752;29;20027;-81
2021/07/01 09:34:39;;;;;;;3.33;1.70;;;;;;;17.95;58.84;100935.63;4810314;29;20035;-83
2021/07/01 09:37:05;;;;;;;3.72;2.00;;;;;;;19.06;58.29;101140.31;4818354;29;20035;-84
2021/07/01 09:39:32;;;;;;;2.00;1.70;;;;;;;18.40;58.57;101014.59;4814529;29;20027;-85
2021/07/01 09:47:10;;;;;;;6.65;2.08;;;;;;;17.82;59.92;100986.59;5815762;24;20206;-81
2021/07/01 09:49:41;;;;;;;4.38;1.90;;;;;;;18.13;60.74;101002.66;4839041;29;20078;-81
2021/07/01 09:52:10;;;;;;;4.72;1.73;;;;;;;18.01;61.27;101062.59;5547033;24;20018;-84
2021/07/01 09:54:38;;;;;;;2.78;1.38;;;;;;;17.41;61.80;101052.06;4842695;29;20046;-84
2021/07/01 09:57:11;;;;;;;3.40;1.48;;;;;;;18.00;61.96;101132.56;4833577;29;20041;-83
2021/07/01 09:59:51;;;;;;;3.80;1.70;;;;;;;16.99;62.20;101025.84;4855615;29;20018;-83
2021/07/01 10:02:22;;;;;;;3.10;1.50;;;;;;;16.78;62.11;100943.00;4843591;29;20030;-83
2021/07/01 10:04:49;;;;;;;2.40;1.60;;;;;;;17.17;62.18;100983.28;4844499;29;20023;-82
2021/07/01 10:07:19;;;;;;;2.58;1.33;;;;;;;18.25;61.86;101126.84;4847920;29;20049;-83
2021/07/01 10:09:48;;;;;;;2.17;1.65;;;;;;;17.19;61.64;100933.03;4842972;29;20011;-82
2021/07/01 10:12:23;;;;;;;3.08;1.35;;;;;;;17.73;61.68;101001.59;4844631;29;20017;-82
2021/07/01 10:14:50;;;;;;;;;;;;;;;18.48;61.10;101125.91;4832804;29;20035;-82
2021/07/01 10:17:19;;;;;;;3.17;1.30;;;;;;;17.63;61.16;101009.56;4829269;29;19913;-82
2021/07/01 10:19:46;;;;;;;2.15;1.30;;;;;;;16.64;61.14;100927.97;4813294;29;20058;-81
2021/07/01 10:22:17;;;;;;;2.20;1.35;;;;;;;17.33;62.35;101102.22;4842753;29;20072;-82
2021/07/01 10:24:58;;;;;;;4.30;1.52;;;;;;;17.72;61.81;101117.00;4829437;29;20092;-81
2021/07/01 10:27:41;;;;;;;3.10;1.30;;;;;;;17.44;62.14;101133.22;4828880;29;20041;-81
2021/07/01 10:30:23;;;;;;;2.42;1.33;;;;;;;16.36;62.18;100974.84;4837522;29;20037;-81
2021/07/01 10:32:53;;;;;;;3.35;1.05;;;;;;;16.39;61.63;100960.78;4837525;29;20039;-81
2021/07/01 10:35:35;;;;;;;5.07;2.00;;;;;;;17.66;62.06;101128.00;4837955;29;20030;-81
2021/07/01 10:38:04;;;;;;;3.35;1.20;;;;;;;17.71;61.46;101147.97;4838490;29;20026;-81
2021/07/01 10:40:31;;;;;;;2.80;1.70;;;;;;;17.23;61.52;101072.91;4846038;29;20018;-81
2021/07/01 10:42:57;;;;;;;1.52;1.23;;;;;;;16.76;61.87;101004.94;4840188;29;20034;-81
2021/07/01 10:45:26;;;;;;;2.45;1.13;;;;;;;17.55;62.35;101143.28;4836732;29;20030;-82
2021/07/01 10:47:54;;;;;;;3.28;1.33;;;;;;;16.77;61.76;100979.41;4837660;29;20054;-81
2021/07/01 10:50:24;;;;;;;5.40;1.90;;;;;;;17.44;61.98;101153.06;4834384;29;20018;-82
2021/07/01 10:52:52;;;;;;;4.50;1.67;;;;;;;17.14;62.10;101052.56;4836874;29;20080;-81
2021/07/01 10:55:18;;;;;;;3.33;1.17;;;;;;;17.07;61.67;101038.25;4840028;29;20050;-83
2021/07/01 10:57:53;;;;;;;3.90;1.63;;;;;;;16.67;61.72;100998.16;4841958;29;20038;-82
2021/07/01 11:00:37;;;;;;;2.70;1.10;;;;;;;16.35;61.83;100979.44;4835488;29;20026;-82
2021/07/01 11:03:04;;;;;;;3.35;1.20;;;;;;;16.85;61.98;101005.38;4840814;29;20045;-82
2021/07/01 11:05:41;;;;;;;2.17;1.10;;;;;;;16.77;61.36;101022.88;4839862;29;20029;-82
2021/07/01 11:08:08;;;;;;;1.98;1.20;;;;;;;17.03;62.17;101089.56;4836711;29;20070;-82
2021/07/01 11:10:38;;;;;;;1.95;1.40;;;;;;;16.83;62.04;101068.16;4836803;29;20510;-82
2021/07/01 11:13:09;;;;;;;4.15;1.50;;;;;;;16.08;62.55;100962.72;4842353;29;20041;-82
2021/07/01 11:16:03;;;;;;;4.72;1.55;;;;;;;15.97;62.71;100947.25;4836657;29;20030;-82
2021/07/01 11:18:50;;;;;;;3.88;1.55;;;;;;;17.22;62.79;101132.94;4836937;29;20025;-82
2021/07/01 11:21:18;;;;;;;3.67;1.70;;;;;;;16.52;62.71;101016.78;4837835;29;20117;-82
2021/07/01 11:23:52;;;;;;;1.90;1.40;;;;;;;16.35;62.72;100997.63;4836093;29;20497;-80
2021/07/01 11:26:22;;;;;;;3.42;1.40;;;;;;;16.85;62.62;101070.63;4840597;29;20094;-82
2021/07/01 11:28:51;;;;;;;2.33;1.40;;;;;;;17.52;62.70;101146.47;4839391;29;20049;-82
2021/07/01 11:31:17;;;;;;;2.53;1.63;;;;;;;16.34;62.40;100969.63;4840713;29;20030;-83
2021/07/01 11:33:52;;;;;;;4.15;1.80;;;;;;;17.47;61.56;101081.03;4836772;29;20011;-82
2021/07/01 11:36:18;;;;;;;;;;;;;;;17.79;61.57;101158.53;4838722;29;20098;-82
2021/07/01 11:38:45;;;;;;;5.32;2.08;;;;;;;16.75;61.76;100991.56;4840621;29;19912;-81
2021/07/01 11:41:11;;;;;;;5.40;1.98;;;;;;;16.03;62.29;100959.06;4827635;29;20022;-79
2021/07/01 11:43:40;;;;;;;2.58;1.63;;;;;;;15.90;62.62;100941.91;4829724;29;20045;-79
2021/07/01 11:46:07;;;;;;;4.63;1.73;;;;;;;16.79;62.66;101068.84;4829303;29;20037;-80
2021/07/01 11:48:34;;;;;;;5.15;1.90;;;;;;;16.51;63.21;101029.53;4828402;29;20110;-81
2021/07/01 11:51:01;;;;;;;3.67;1.77;;;;;;;16.16;63.71;100980.59;4826335;29;20022;-79
2021/07/01 11:53:27;;;;;;;5.40;1.83;;;;;;;16.12;63.39;100976.66;4829051;29;20077;-80
2021/07/01 11:55:57;;;;;;;3.55;1.45;;;;;;;16.61;64.12;101088.72;4829323;29;20031;-80
2021/07/01 11:58:24;;;;;;;4.82;1.80;;;;;;;16.93;63.96;101159.16;4829264;29;20030;-80
2021/07/01 12:00:51;;;;;;;3.25;1.67;;;;;;;16.27;64.46;101076.72;4828782;29;20023;-80
2021/07/01 12:03:18;;;;;;;2.42;1.55;;;;;;;16.71;64.35;101166.97;4830614;29;20027;-80
2021/07/01 12:05:47;;;;;;;4.95;1.70;;;;;;;16.15;64.43;101063.06;4838471;29;20038;-78
2021/07/01 12:08:13;;;;;;;4.07;1.60;;;;;;;16.79;64.59;101156.66;4825990;29;20034;-81
2021/07/01 12:10:39;;;;;;;3.17;1.63;;;;;;;16.62;64.23;101144.72;4832545;29;20046;-79
2021/07/01 12:13:30;;;;;;;5.93;1.70;;;;;;;16.87;64.06;101163.63;4824121;29;20042;-80
2021/07/01 12:16:03;;;;;;;2.40;1.58;;;;;;;16.94;63.67;101164.34;4832521;29;20517;-79
2021/07/01 12:18:44;;;;;;;4.13;1.30;;;;;;;16.98;63.41;101149.22;4824784;29;20033;-79
2021/07/01 12:21:10;;;;;;;2.60;1.50;;;;;;;17.06;63.57;101150.81;4829876;29;20113;-80
2021/07/01 12:23:46;;;;;;;2.70;1.50;;;;;;;17.00;63.93;101152.56;4834531;29;20036;-80